Time;durP1;ratioP1;P1;durP2;ratioP2;P2;SDS_P1;SDS_P2;PMS_P1;PMS_P2;Temp;Humidity;BMP_temperature;BMP_pressure;BME280_temperature;BME280_humidity;BME280_pressure;Samples;Min_cycle;Max_cycle;Signal;HPM_P1;HPM_P2
2021/01/29 00:00:06;;;;;;;37.15;19.48;;;;;;;3.37;67.81;97372.03;258806;1116;115095;-72
2021/01/29 00:05:38;;;;;;;30.63;17.25;;;;;;;3.40;67.90;97392.89;258709;1116;114959;-72
2021/01/29 00:10:40;;;;;;;26.75;14.70;;;;;;;3.42;68.00;97398.04;258741;1116;115086;-72
2021/01/29 00:15:43;;;;;;;23.90;14.90;;;;;;;3.43;68.06;97397.09;258926;1115;114699;-72
2021/01/29 00:20:46;;;;;;;25.08;15.08;;;;;;;3.49;68.19;97392.31;258757;1115;114989;-72
2021/01/29 00:25:54;;;;;;;18.73;13.10;;;;;;;3.55;67.89;97389.32;258648;1116;114908;-72
2021/01/29 00:30:57;;;;;;;21.45;13.80;;;;;;;3.61;68.15;97379.39;258786;1115;115155;-71
2021/01/29 00:35:59;;;;;;;19.80;13.98;;;;;;;3.53;67.92;97369.30;258669;1115;114823;-73
2021/01/29 00:41:01;;;;;;;23.45;15.30;;;;;;;3.49;67.99;97358.13;258823;1115;115115;-72
2021/01/29 00:46:03;;;;;;;24.33;15.35;;;;;;;3.49;68.08;97376.53;258694;1116;115027;-72
2021/01/29 00:51:07;;;;;;;24.18;14.05;;;;;;;3.48;67.96;97369.59;258790;1115;115211;-72
2021/01/29 00:56:10;;;;;;;22.65;15.58;;;;;;;3.54;68.23;97361.34;258642;1116;114857;-71
2021/01/29 01:01:20;;;;;;;22.00;14.63;;;;;;;3.52;67.99;97365.84;258696;1116;114969;-70
2021/01/29 01:06:27;;;;;;;24.30;14.20;;;;;;;3.51;68.04;97351.00;257856;1116;115006;-73
2021/01/29 01:11:59;;;;;;;22.97;14.73;;;;;;;3.49;67.90;97358.13;258715;1116;115043;-72
2021/01/29 01:17:15;;;;;;;23.93;15.38;;;;;;;3.49;68.08;97365.17;258843;1115;115268;-72
2021/01/29 01:22:43;;;;;;;28.90;17.50;;;;;;;3.51;67.91;97353.63;258464;1116;114873;-73
2021/01/29 01:28:08;;;;;;;30.45;17.73;;;;;;;3.49;68.19;97368.64;257790;1112;115641;-72
2021/01/29 01:33:18;;;;;;;26.53;16.13;;;;;;;3.56;68.02;97377.02;258682;1116;115176;-72
2021/01/29 01:38:53;;;;;;;27.00;17.65;;;;;;;3.60;68.30;97373.28;258503;1116;114994;-72
2021/01/29 01:44:00;;;;;;;29.00;17.35;;;;;;;3.65;68.40;97381.72;258729;1115;114931;-72
2021/01/29 01:49:27;;;;;;;27.00;17.63;;;;;;;3.67;68.49;97376.36;258732;1116;115235;-72
2021/01/29 01:55:01;;;;;;;24.73;16.33;;;;;;;3.64;68.30;97387.94;258962;1115;114929;-73
2021/01/29 02:00:24;;;;;;;28.58;18.35;;;;;;;3.58;68.37;97387.45;258848;1115;116109;-71
2021/01/29 02:05:48;;;;;;;26.03;16.20;;;;;;;3.58;68.19;97382.20;256580;1116;115111;-73
2021/01/29 02:10:58;;;;;;;27.33;17.05;;;;;;;3.49;67.75;97378.33;257497;1116;114710;-73
2021/01/29 02:16:43;;;;;;;30.70;17.28;;;;;;;3.50;68.48;97383.52;257624;1115;115287;-72
2021/01/29 02:22:39;;;;;;;30.73;18.87;;;;;;;3.53;68.48;97393.84;257610;1116;115219;-72
2021/01/29 02:28:07;;;;;;;27.05;17.23;;;;;;;3.46;68.25;97402.17;257907;1115;114803;-72
2021/01/29 02:33:55;;;;;;;29.00;18.13;;;;;;;3.38;68.07;97409.69;256588;1116;114712;-73
2021/01/29 02:39:23;;;;;;;32.10;20.10;;;;;;;3.32;68.02;97402.99;256820;1116;115505;-72
2021/01/29 02:44:45;;;;;;;33.68;20.65;;;;;;;3.31;68.50;97410.04;257964;1116;114943;-70
2021/01/29 02:50:39;;;;;;;40.17;22.10;;;;;;;3.26;69.02;97409.48;258373;1116;114648;-71
2021/01/29 02:56:13;;;;;;;39.08;21.77;;;;;;;3.32;68.65;97410.88;258236;1115;114595;-72
2021/01/29 03:01:43;;;;;;;36.38;21.23;;;;;;;3.37;68.80;97429.88;257452;1116;115030;-71
2021/01/29 03:07:18;;;;;;;33.45;18.30;;;;;;;3.37;68.34;97435.13;257701;1115;115011;-72
2021/01/29 03:12:47;;;;;;;22.90;14.20;;;;;;;3.31;68.08;97440.74;258700;1116;114978;-72
2021/01/29 03:18:20;;;;;;;25.00;13.98;;;;;;;3.14;67.69;97454.87;258813;1115;114881;-71
2021/01/29 03:23:49;;;;;;;24.93;15.28;;;;;;;2.97;67.26;97468.13;256876;1115;114915;-72
2021/01/29 03:29:16;;;;;;;27.08;16.18;;;;;;;2.85;67.04;97474.90;257218;1116;114752;-72
2021/01/29 03:35:07;;;;;;;24.30;15.53;;;;;;;2.77;66.78;97483.22;258010;1115;114782;-72
2021/01/29 03:40:30;;;;;;;29.38;17.55;;;;;;;2.81;67.08;97476.02;257737;1115;114930;-72
2021/01/29 03:46:16;;;;;;;25.18;15.15;;;;;;;2.82;66.82;97482.98;258674;1116;114570;-70
2021/01/29 03:52:02;;;;;;;22.53;14.75;;;;;;;2.69;66.47;97474.93;256176;1116;115090;-73
2021/01/29 03:57:28;;;;;;;;;;;;;;;2.58;66.01;97486.03;258414;1115;114989;-72
2021/01/29 04:03:06;;;;;;;24.50;14.80;;;;;;;2.50;66.45;97497.88;257770;1115;102946;-71
2021/01/29 04:08:38;;;;;;;26.77;16.67;;;;;;;2.43;65.94;97510.48;257775;1115;115015;-72
2021/01/29 04:14:06;;;;;;;26.40;15.73;;;;;;;2.43;66.10;97507.86;258396;1116;115467;-73
2021/01/29 04:19:28;;;;;;;28.80;16.68;;;;;;;2.44;66.01;97506.07;257793;1116;115444;-73
2021/01/29 04:24:43;;;;;;;26.20;14.68;;;;;;;2.42;65.87;97500.92;258195;1115;114525;-72
2021/01/29 04:30:18;;;;;;;30.13;16.03;;;;;;;2.37;65.95;97511.65;258193;1115;115711;-73
2021/01/29 04:35:25;;;;;;;25.28;14.65;;;;;;;2.39;65.72;97516.83;255998;1115;115246;-72
2021/01/29 04:40:37;;;;;;;22.65;12.23;;;;;;;2.43;65.45;97522.77;257285;1115;115771;-71
2021/01/29 04:46:04;;;;;;;14.07;9.20;;;;;;;2.44;64.83;97527.92;258801;1114;115814;-71
2021/01/29 04:51:41;;;;;;;12.47;7.27;;;;;;;2.29;63.67;97524.34;257788;1113;114785;-70
2021/01/29 04:56:56;;;;;;;9.85;5.33;;;;;;;2.24;63.23;97533.38;257661;1115;115912;-71
2021/01/29 05:02:22;;;;;;;8.45;4.75;;;;;;;2.18;63.05;97531.95;257976;1116;114842;-72
2021/01/29 05:08:09;;;;;;;9.47;4.97;;;;;;;2.01;62.40;97527.58;258514;1115;114527;-73
2021/01/29 05:13:57;;;;;;;6.88;4.50;;;;;;;1.87;62.22;97527.45;257420;1115;115174;-72
2021/01/29 05:19:29;;;;;;;10.28;5.40;;;;;;;1.74;62.34;97529.00;258799;1116;114342;-73
2021/01/29 05:24:53;;;;;;;12.13;6.30;;;;;;;1.68;61.95;97524.91;256919;1115;114618;-73
2021/01/29 05:30:05;;;;;;;11.23;6.20;;;;;;;1.65;61.92;97535.55;257980;1115;114892;-73
2021/01/29 05:35:35;;;;;;;11.15;6.05;;;;;;;1.62;61.51;97535.70;257722;1115;116176;-71
2021/01/29 05:41:03;;;;;;;13.90;6.87;;;;;;;1.51;62.12;97538.86;256197;1116;114738;-71
2021/01/29 05:46:29;;;;;;;14.30;7.30;;;;;;;1.49;61.45;97543.31;258543;1115;116962;-71
2021/01/29 05:51:57;;;;;;;13.68;7.13;;;;;;;1.41;62.45;97537.62;257191;1115;114942;-70
2021/01/29 05:57:31;;;;;;;17.18;7.68;;;;;;;1.37;61.82;97538.70;258752;1116;115182;-70
2021/01/29 06:03:04;;;;;;;16.53;7.83;;;;;;;1.29;62.01;97540.83;258796;1115;115573;-70
2021/01/29 06:08:45;;;;;;;16.63;7.70;;;;;;;1.26;62.17;97554.95;259039;1115;115025;-69
2021/01/29 06:14:28;;;;;;;18.55;8.43;;;;;;;1.21;62.38;97562.17;258630;1116;115024;-69
2021/01/29 06:19:45;;;;;;;18.20;9.15;;;;;;;1.21;61.93;97554.31;258887;1115;115269;-71
2021/01/29 06:25:20;;;;;;;18.83;8.08;;;;;;;1.20;61.73;97547.38;258769;1116;114603;-70
2021/01/29 06:30:35;;;;;;;17.30;8.93;;;;;;;1.17;62.69;97553.61;258066;1114;115953;-69
2021/01/29 06:36:05;;;;;;;12.40;6.68;;;;;;;1.16;61.97;97564.18;258528;1116;115536;-69
2021/01/29 06:41:35;;;;;;;14.13;7.53;;;;;;;1.11;62.06;97564.38;258792;1116;114424;-72
2021/01/29 06:47:04;;;;;;;18.63;7.30;;;;;;;1.12;62.50;97567.84;258680;1116;114859;-70
2021/01/29 06:52:32;;;;;;;11.80;7.20;;;;;;;1.14;62.03;97553.75;258859;1115;115176;-69
2021/01/29 06:57:44;;;;;;;13.73;6.70;;;;;;;1.17;62.32;97566.71;258331;1116;115682;-69
2021/01/29 07:03:10;;;;;;;14.83;6.45;;;;;;;1.20;62.11;97551.78;256597;1115;114849;-71
2021/01/29 07:08:20;;;;;;;11.87;5.77;;;;;;;1.27;62.03;97550.55;258067;1116;114611;-70
2021/01/29 07:13:29;;;;;;;10.65;5.83;;;;;;;1.41;62.42;97540.23;258770;1115;115780;-69
2021/01/29 07:19:04;;;;;;;12.63;7.00;;;;;;;1.51;61.68;97527.53;254461;1116;115003;-72
2021/01/29 07:24:28;;;;;;;10.23;6.03;;;;;;;1.58;62.02;97519.27;258621;1116;115485;-68
2021/01/29 07:29:38;;;;;;;12.10;5.87;;;;;;;1.59;61.75;97523.58;255736;1115;114848;-69
2021/01/29 07:34:46;;;;;;;14.18;6.75;;;;;;;1.53;61.76;97518.67;258688;1116;115700;-70
2021/01/29 07:40:12;;;;;;;11.63;6.68;;;;;;;1.58;62.07;97507.94;258737;1115;115746;-72
2021/01/29 07:45:20;;;;;;;11.98;6.38;;;;;;;1.59;61.67;97517.49;258904;1115;115615;-69
2021/01/29 07:50:28;;;;;;;11.90;6.05;;;;;;;1.60;61.85;97509.56;258862;1115;116392;-69
2021/01/29 07:56:04;;;;;;;13.38;6.48;;;;;;;1.69;61.53;97504.77;258758;1116;115761;-72
2021/01/29 08:01:10;;;;;;;11.55;5.65;;;;;;;1.81;62.04;97483.17;257865;1116;115925;-71
2021/01/29 08:06:21;;;;;;;13.80;6.98;;;;;;;1.88;61.77;97481.92;258822;1115;115942;-70
2021/01/29 08:11:25;;;;;;;11.73;7.50;;;;;;;1.95;61.40;97471.96;258861;1116;114650;-70
2021/01/29 08:16:49;;;;;;;14.18;7.25;;;;;;;1.88;60.74;97461.78;258664;1116;115710;-69
2021/01/29 08:22:26;;;;;;;10.50;6.28;;;;;;;1.93;61.20;97458.06;258810;1115;114819;-71
2021/01/29 08:28:02;;;;;;;13.65;7.23;;;;;;;1.88;60.98;97471.44;258506;1116;115415;-71
2021/01/29 08:33:56;;;;;;;12.85;7.10;;;;;;;1.96;61.41;97456.13;258879;1115;115582;-70
2021/01/29 08:39:29;;;;;;;11.35;6.93;;;;;;;1.96;60.60;97450.03;258742;1113;114654;-70
2021/01/29 08:45:07;;;;;;;14.80;6.93;;;;;;;1.86;60.61;97440.02;258804;1116;115622;-71
2021/01/29 08:50:12;;;;;;;;;;;;;;;1.80;60.56;97439.50;258763;1115;115653;-73
2021/01/29 08:55:14;;;;;;;14.10;7.15;;;;;;;1.77;60.80;97437.91;258770;1113;101088;-72
2021/01/29 09:00:26;;;;;;;14.47;8.13;;;;;;;1.81;60.96;97434.19;258779;1115;115730;-71
2021/01/29 09:05:32;;;;;;;14.48;7.73;;;;;;;1.91;60.63;97438.95;258645;1116;116237;-71
2021/01/29 09:10:59;;;;;;;15.43;8.40;;;;;;;1.95;60.36;97451.81;258778;1115;115117;-72
2021/01/29 09:16:10;;;;;;;17.05;7.68;;;;;;;1.99;60.34;97461.21;257251;1116;115981;-72
2021/01/29 09:21:19;;;;;;;15.13;8.23;;;;;;;2.10;60.08;97445.73;258812;1114;115518;-73
2021/01/29 09:26:32;;;;;;;14.15;7.70;;;;;;;2.15;60.10;97448.14;258840;1115;114711;-73
2021/01/29 09:31:37;;;;;;;13.53;7.70;;;;;;;2.28;60.13;97458.83;258702;1116;115597;-71
2021/01/29 09:36:50;;;;;;;16.28;8.40;;;;;;;2.23;59.80;97438.06;258863;1114;114798;-71
2021/01/29 09:42:14;;;;;;;19.45;9.95;;;;;;;2.29;59.61;97437.73;258827;1115;114598;-71
2021/01/29 09:47:21;;;;;;;14.38;8.50;;;;;;;2.38;59.48;97433.77;258655;1113;115930;-72
2021/01/29 09:52:35;;;;;;;17.53;8.35;;;;;;;2.39;59.01;97434.61;258761;1116;114982;-70
2021/01/29 09:57:53;;;;;;;14.83;8.08;;;;;;;2.38;58.60;97412.77;258916;1115;115701;-71
2021/01/29 10:03:18;;;;;;;15.30;8.20;;;;;;;2.36;58.55;97412.84;258879;1114;115697;-69
2021/01/29 10:08:32;;;;;;;17.50;8.00;;;;;;;2.36;58.11;97396.25;258863;1115;115231;-70
2021/01/29 10:13:37;;;;;;;15.78;8.85;;;;;;;2.43;58.14;97391.50;258709;1114;115712;-70
2021/01/29 10:18:40;;;;;;;;;;;;;;;2.61;58.43;97387.83;258866;1115;115629;-69
2021/01/29 10:24:08;;;;;;;17.78;9.43;;;;;;;2.78;58.08;97394.75;258111;1115;103048;-69
2021/01/29 10:29:22;;;;;;;20.25;9.55;;;;;;;2.98;57.80;97394.45;258822;1116;114580;-71
2021/01/29 10:34:50;;;;;;;24.20;11.28;;;;;;;3.17;58.14;97385.52;258875;1115;114769;-70
2021/01/29 10:40:18;;;;;;;21.33;11.23;;;;;;;3.36;57.68;97383.47;258720;1116;115679;-71
2021/01/29 10:45:34;;;;;;;24.28;10.60;;;;;;;3.45;57.47;97385.55;258773;1115;116213;-69
2021/01/29 10:50:43;;;;;;;;;;;;;;;3.54;57.55;97379.75;258918;1115;115336;-70
2021/01/29 10:56:00;;;;;;;20.05;9.35;;;;;;;3.67;57.22;97376.36;258761;1115;102025;-71
2021/01/29 11:01:32;;;;;;;22.77;11.97;;;;;;;3.82;57.31;97364.91;258775;1116;114811;-72
2021/01/29 11:06:45;;;;;;;24.25;12.13;;;;;;;4.14;56.34;97348.88;258728;1116;115489;-72
2021/01/29 11:11:56;;;;;;;23.73;12.55;;;;;;;4.36;56.07;97336.05;258939;1115;115773;-69
2021/01/29 11:17:18;;;;;;;22.30;12.85;;;;;;;4.36;55.88;97333.42;258818;1116;116276;-71
2021/01/29 11:22:59;;;;;;;21.08;11.93;;;;;;;4.20;55.08;97319.54;258798;1116;115013;-73
2021/01/29 11:28:24;;;;;;;25.73;12.98;;;;;;;4.02;54.43;97303.98;258663;1116;115629;-73
2021/01/29 11:33:30;;;;;;;25.20;12.87;;;;;;;3.92;54.98;97304.66;258678;1116;115842;-73
2021/01/29 11:38:32;;;;;;;30.60;13.15;;;;;;;3.88;54.55;97300.55;258814;1115;114810;-73
2021/01/29 11:43:38;;;;;;;32.45;14.13;;;;;;;3.88;54.40;97304.02;258721;1116;115250;-73
2021/01/29 11:48:51;;;;;;;24.80;12.45;;;;;;;3.79;54.45;97280.91;258793;1114;115545;-72
2021/01/29 11:53:56;;;;;;;22.40;12.20;;;;;;;3.69;54.24;97277.16;258772;1115;116068;-71
2021/01/29 11:59:24;;;;;;;23.45;12.30;;;;;;;3.58;53.60;97271.73;258802;1115;115310;-71
2021/01/29 12:04:40;;;;;;;21.93;12.03;;;;;;;3.54;53.75;97266.66;258884;1115;114964;-69
2021/01/29 12:09:52;;;;;;;19.33;11.50;;;;;;;3.64;54.00;97266.94;258845;1115;115915;-70
2021/01/29 12:15:11;;;;;;;22.10;10.20;;;;;;;3.91;53.92;97245.94;258778;1116;116227;-71
2021/01/29 12:20:22;;;;;;;19.80;10.90;;;;;;;4.20;53.67;97240.56;258900;1114;114972;-71
2021/01/29 12:25:51;;;;;;;20.65;11.23;;;;;;;4.43;53.21;97231.99;258416;1116;115683;-71
2021/01/29 12:31:12;;;;;;;21.35;11.68;;;;;;;4.70;52.80;97231.94;257581;1115;116334;-70
2021/01/29 12:36:18;;;;;;;20.50;10.88;;;;;;;4.78;52.94;97214.77;257702;1114;116287;-71
2021/01/29 12:41:59;;;;;;;25.50;10.78;;;;;;;4.79;52.27;97212.04;258801;1115;114808;-71
2021/01/29 12:47:17;;;;;;;21.50;10.80;;;;;;;4.66;51.00;97187.47;257624;1116;116080;-71
2021/01/29 12:52:44;;;;;;;15.57;9.20;;;;;;;4.51;50.49;97184.06;258693;1116;115354;-69
2021/01/29 12:58:09;;;;;;;18.67;9.70;;;;;;;4.42;50.41;97188.17;258761;1116;116267;-70
2021/01/29 13:03:36;;;;;;;16.13;8.30;;;;;;;4.30;49.89;97186.35;258881;1115;114740;-70
2021/01/29 13:09:16;;;;;;;19.13;10.28;;;;;;;4.19;50.39;97179.17;258871;1115;114892;-71
2021/01/29 13:14:36;;;;;;;24.15;9.83;;;;;;;4.19;50.84;97170.44;258865;1114;116524;-71
2021/01/29 13:19:39;;;;;;;18.68;9.75;;;;;;;4.18;50.55;97176.66;258906;1114;115386;-71
2021/01/29 13:24:43;;;;;;;22.88;10.55;;;;;;;4.17;50.65;97167.05;258774;1114;115808;-71
2021/01/29 13:29:46;;;;;;;22.83;10.53;;;;;;;4.17;51.12;97167.05;258794;1116;114808;-70
2021/01/29 13:34:49;;;;;;;25.70;11.45;;;;;;;4.15;50.84;97166.33;258651;1116;115814;-72
2021/01/29 13:40:02;;;;;;;40.38;19.13;;;;;;;4.13;51.40;97170.83;258720;1115;116190;-72
2021/01/29 13:45:16;;;;;;;30.15;15.30;;;;;;;4.12;51.72;97156.84;258843;1114;116079;-71
2021/01/29 13:50:30;;;;;;;29.08;14.40;;;;;;;4.12;51.38;97153.36;258773;1114;116375;-70
2021/01/29 13:55:41;;;;;;;28.45;13.58;;;;;;;4.06;51.92;97151.97;258857;1116;115630;-73
2021/01/29 14:00:49;;;;;;;24.00;13.55;;;;;;;4.02;51.96;97148.70;258855;1116;115125;-70
2021/01/29 14:05:52;;;;;;;27.05;13.95;;;;;;;3.99;51.99;97137.53;258837;1115;115505;-70
2021/01/29 14:10:57;;;;;;;26.35;13.25;;;;;;;3.95;52.73;97126.37;258881;1115;114956;-71
2021/01/29 14:16:20;;;;;;;21.55;12.08;;;;;;;3.91;52.38;97122.27;258827;1115;116001;-71
2021/01/29 14:21:39;;;;;;;28.35;13.55;;;;;;;3.88;52.69;97125.09;258761;1115;115714;-70
2021/01/29 14:26:53;;;;;;;27.83;13.43;;;;;;;3.83;52.22;97121.06;258925;1116;116053;-71
2021/01/29 14:32:25;;;;;;;28.75;14.48;;;;;;;3.78;52.68;97119.58;258956;1115;115435;-72
2021/01/29 14:37:33;;;;;;;31.83;15.40;;;;;;;3.73;52.34;97107.66;258851;1116;115739;-72
2021/01/29 14:43:00;;;;;;;31.38;16.18;;;;;;;3.68;52.85;97094.83;258851;1116;114941;-72
2021/01/29 14:48:20;;;;;;;30.65;14.93;;;;;;;3.66;52.58;97098.49;258811;1115;116171;-72
2021/01/29 14:53:23;;;;;;;28.70;14.55;;;;;;;3.65;52.85;97088.92;258794;1116;117710;-70
2021/01/29 14:58:31;;;;;;;31.95;16.25;;;;;;;3.63;52.75;97090.80;258855;1114;115935;-72
2021/01/29 15:03:44;;;;;;;58.65;27.35;;;;;;;3.59;52.93;97091.95;258708;1116;116208;-71
2021/01/29 15:08:51;;;;;;;49.60;24.18;;;;;;;3.53;52.97;97086.16;258785;1115;115832;-71
2021/01/29 15:13:58;;;;;;;48.55;23.83;;;;;;;3.50;52.95;97075.84;258833;1115;115844;-71
2021/01/29 15:19:00;;;;;;;45.88;21.98;;;;;;;3.46;53.13;97082.22;258845;1116;115510;-72
2021/01/29 15:24:03;;;;;;;46.00;20.33;;;;;;;3.39;53.02;97085.35;258214;1115;116369;-72
2021/01/29 15:29:09;;;;;;;42.93;21.77;;;;;;;3.34;52.90;97084.81;258708;1116;114849;-70
2021/01/29 15:34:11;;;;;;;54.63;22.60;;;;;;;3.32;52.96;97091.00;258823;1115;115205;-71
2021/01/29 15:39:16;;;;;;;45.60;21.63;;;;;;;3.34;52.97;97088.28;258796;1115;115576;-71
2021/01/29 15:44:22;;;;;;;53.40;23.70;;;;;;;3.33;53.23;97081.35;258784;1115;115741;-69
2021/01/29 15:49:27;;;;;;;47.85;21.90;;;;;;;3.32;52.86;97071.75;258805;1115;115884;-68
2021/01/29 15:54:38;;;;;;;;;;;;;;;3.30;53.21;97076.28;258881;1116;116709;-70
2021/01/29 15:59:50;;;;;;;47.48;21.08;;;;;;;3.25;53.10;97070.47;258885;1115;101220;-69
2021/01/29 16:04:54;;;;;;;51.08;22.08;;;;;;;3.23;53.05;97059.23;258696;1116;114732;-70
2021/01/29 16:09:59;;;;;;;53.85;25.05;;;;;;;3.20;53.00;97064.68;258865;1116;115924;-71
2021/01/29 16:15:07;;;;;;;48.95;23.43;;;;;;;3.16;53.22;97061.41;258865;1115;115758;-68
2021/01/29 16:20:39;;;;;;;49.33;23.23;;;;;;;3.16;53.33;97045.64;258850;1115;114978;-70
2021/01/29 16:25:43;;;;;;;48.33;22.90;;;;;;;3.17;53.21;97059.62;258686;1115;115612;-70
2021/01/29 16:30:48;;;;;;;39.80;20.43;;;;;;;3.18;53.12;97045.53;258649;1116;115488;-70
2021/01/29 16:35:57;;;;;;;44.28;21.75;;;;;;;3.18;53.10;97048.98;258828;1116;115720;-70
2021/01/29 16:41:03;;;;;;;43.68;18.65;;;;;;;3.21;52.99;97050.59;258846;1116;115740;-71
2021/01/29 16:46:33;;;;;;;44.93;20.25;;;;;;;3.20;53.16;97043.66;258784;1112;116000;-70
2021/01/29 16:51:38;;;;;;;43.58;21.98;;;;;;;3.18;53.17;97042.90;258683;1115;115091;-70
2021/01/29 16:56:40;;;;;;;41.63;20.30;;;;;;;3.21;52.92;97040.91;258894;1115;116604;-70
2021/01/29 17:01:46;;;;;;;46.43;22.03;;;;;;;3.18;52.44;97035.85;258830;1116;115661;-69
2021/01/29 17:07:02;;;;;;;49.33;23.33;;;;;;;3.18;52.85;97027.97;258846;1115;116121;-71
2021/01/29 17:12:33;;;;;;;54.33;24.40;;;;;;;3.11;51.92;97025.84;258665;1115;115147;-70
2021/01/29 17:17:36;;;;;;;61.08;25.63;;;;;;;3.03;52.69;97019.30;257780;1115;114962;-69
2021/01/29 17:22:42;;;;;;;53.30;23.63;;;;;;;3.01;52.68;97015.08;258768;1115;115863;-70
2021/01/29 17:27:49;;;;;;;45.00;19.93;;;;;;;3.00;53.25;97008.98;258372;1114;115976;-76
2021/01/29 17:32:53;;;;;;;35.70;17.68;;;;;;;3.04;53.34;97013.09;257890;1115;116804;-74
2021/01/29 17:38:24;;;;;;;37.25;17.50;;;;;;;3.00;53.31;97016.03;258588;1116;115266;-74
2021/01/29 17:43:34;;;;;;;34.50;16.28;;;;;;;2.97;53.32;97010.96;258793;1114;115437;-74
2021/01/29 17:48:40;;;;;;;39.75;17.40;;;;;;;2.94;53.71;97005.91;258681;1114;115513;-76
2021/01/29 17:53:52;;;;;;;29.43;16.23;;;;;;;2.89;53.76;97000.09;258843;1115;115916;-76
2021/01/29 17:58:54;;;;;;;28.03;14.70;;;;;;;2.86;53.64;96995.89;258185;1115;115896;-78
2021/01/29 18:04:02;;;;;;;27.85;15.73;;;;;;;2.81;53.86;96995.33;258443;1116;114966;-75
2021/01/29 18:09:16;;;;;;;31.10;17.05;;;;;;;2.84;54.21;96982.00;258840;1115;115476;-74
2021/01/29 18:14:21;;;;;;;31.50;16.80;;;;;;;2.83;53.86;96980.33;258615;1116;115144;-75
2021/01/29 18:19:24;;;;;;;37.18;18.58;;;;;;;2.80;54.26;96975.27;258632;1115;115646;-71
2021/01/29 18:24:27;;;;;;;38.25;18.70;;;;;;;2.77;53.92;96967.58;258755;1114;114915;-74
2021/01/29 18:29:30;;;;;;;37.23;18.38;;;;;;;2.73;54.24;96976.60;258636;1115;115947;-75
2021/01/29 18:34:38;;;;;;;40.95;20.55;;;;;;;2.75;54.41;96974.70;258744;1116;115643;-76
2021/01/29 18:39:42;;;;;;;35.60;19.18;;;;;;;2.74;54.57;96965.98;258795;1113;115835;-75
2021/01/29 18:44:45;;;;;;;38.45;18.90;;;;;;;2.75;54.69;96964.20;258760;1115;115620;-75
2021/01/29 18:49:47;;;;;;;35.60;18.78;;;;;;;2.72;54.93;96951.29;258791;1115;115757;-76
2021/01/29 18:54:50;;;;;;;43.60;20.97;;;;;;;2.67;55.09;96954.19;258752;1115;117067;-73
2021/01/29 18:59:52;;;;;;;40.48;21.08;;;;;;;2.62;55.01;96953.66;258635;1115;115649;-75
2021/01/29 19:04:54;;;;;;;38.68;21.45;;;;;;;2.57;55.21;96947.84;258684;1115;115104;-76
2021/01/29 19:09:57;;;;;;;43.18;21.25;;;;;;;2.57;54.81;96948.67;258633;1116;115921;-75
2021/01/29 19:14:59;;;;;;;43.08;21.48;;;;;;;2.55;55.32;96944.48;258650;1115;114736;-75
2021/01/29 19:20:06;;;;;;;51.75;25.03;;;;;;;2.55;55.78;96937.45;258691;1116;115900;-76
2021/01/29 19:25:10;;;;;;;50.43;26.25;;;;;;;2.57;55.56;96942.59;258684;1115;115415;-75
2021/01/29 19:30:16;;;;;;;58.80;26.55;;;;;;;2.55;55.74;96939.23;258719;1115;116047;-70
2021/01/29 19:35:37;;;;;;;58.80;28.28;;;;;;;2.54;55.86;96935.74;258041;1116;115882;-73
2021/01/29 19:41:05;;;;;;;64.70;30.93;;;;;;;2.52;56.11;96919.27;258017;1116;116092;-70
2021/01/29 19:46:14;;;;;;;63.88;31.25;;;;;;;2.50;56.25;96923.76;257863;1115;115822;-72
2021/01/29 19:51:17;;;;;;;61.53;31.48;;;;;;;2.44;56.15;96920.67;257682;1114;116623;-73
2021/01/29 19:56:35;;;;;;;65.30;33.80;;;;;;;2.31;56.43;96924.09;257646;1112;116111;-74
2021/01/29 20:01:44;;;;;;;66.73;31.60;;;;;;;2.23;56.95;96920.25;258233;1116;115448;-74
2021/01/29 20:06:52;;;;;;;57.95;28.00;;;;;;;2.15;56.88;96927.77;257768;1116;116457;-71
2021/01/29 20:11:57;;;;;;;56.33;29.30;;;;;;;2.09;57.32;96923.74;258014;1116;115706;-69
2021/01/29 20:17:09;;;;;;;56.65;28.20;;;;;;;2.04;57.46;96915.33;257898;1115;116790;-73
2021/01/29 20:22:21;;;;;;;58.23;28.70;;;;;;;2.02;57.72;96925.90;257606;1115;115668;-71
2021/01/29 20:27:30;;;;;;;58.70;30.08;;;;;;;1.97;57.87;96921.86;257245;1116;115900;-71
2021/01/29 20:32:42;;;;;;;61.10;30.63;;;;;;;1.95;58.22;96916.73;257876;1116;116601;-73
2021/01/29 20:37:53;;;;;;;64.15;30.58;;;;;;;1.92;58.55;96918.70;257686;1115;115943;-75
2021/01/29 20:42:56;;;;;;;57.20;29.60;;;;;;;1.88;58.39;96916.26;257759;1116;115653;-75
2021/01/29 20:48:01;;;;;;;60.95;30.55;;;;;;;1.85;59.06;96918.23;257404;1116;115875;-73
2021/01/29 20:53:13;;;;;;;62.35;30.10;;;;;;;1.83;59.14;96912.22;257620;1115;116922;-72
2021/01/29 20:58:21;;;;;;;64.53;29.98;;;;;;;1.79;59.25;96908.95;257950;1116;115631;-70
2021/01/29 21:03:33;;;;;;;61.80;28.98;;;;;;;1.79;59.60;96913.35;257640;1115;115255;-72
2021/01/29 21:08:39;;;;;;;65.00;30.50;;;;;;;1.78;60.12;96916.92;257488;1115;115093;-71
2021/01/29 21:13:50;;;;;;;63.35;31.50;;;;;;;1.79;60.35;96926.47;257922;1116;116074;-72
2021/01/29 21:18:59;;;;;;;62.03;32.83;;;;;;;1.79;60.39;96926.47;257699;1116;116480;-71
2021/01/29 21:24:09;;;;;;;70.90;34.23;;;;;;;1.77;60.49;96920.48;257122;1116;115684;-73
2021/01/29 21:29:36;;;;;;;69.88;34.90;;;;;;;1.78;60.58;96920.38;257113;1113;116170;-75
2021/01/29 21:34:47;;;;;;;73.00;35.58;;;;;;;1.79;60.84;96929.08;258211;1116;115152;-71
2021/01/29 21:39:57;;;;;;;61.90;33.75;;;;;;;1.80;60.95;96930.77;258004;1116;115376;-68
2021/01/29 21:45:07;;;;;;;65.10;32.38;;;;;;;1.80;61.04;96930.77;258603;1115;115609;-71
2021/01/29 21:50:13;;;;;;;73.87;36.00;;;;;;;1.82;61.07;96934.15;258800;1116;115789;-69
2021/01/29 21:55:16;;;;;;;71.48;35.15;;;;;;;1.80;60.98;96936.00;258775;1115;114910;-69
2021/01/29 22:00:20;;;;;;;71.98;36.93;;;;;;;1.77;61.19;96941.47;257917;1116;115994;-69
2021/01/29 22:05:24;;;;;;;70.58;35.08;;;;;;;1.74;61.34;96950.35;258828;1115;116129;-69
2021/01/29 22:10:28;;;;;;;;;;;;;;;1.71;61.25;96955.78;258785;1116;114822;-69
2021/01/29 22:15:31;;;;;;;60.83;31.55;;;;;;;1.67;61.64;96964.77;258852;1115;101426;-70
2021/01/29 22:20:35;;;;;;;61.73;33.23;;;;;;;1.66;61.55;96955.19;258666;1116;116009;-69
2021/01/29 22:25:38;;;;;;;66.20;32.97;;;;;;;1.67;61.43;96964.77;258752;1115;115397;-70
2021/01/29 22:30:42;;;;;;;63.10;33.53;;;;;;;1.64;61.90;96960.55;258890;1116;114737;-69
2021/01/29 22:35:45;;;;;;;71.55;35.50;;;;;;;1.63;61.73;96958.00;258734;1116;114799;-71
2021/01/29 22:40:49;;;;;;;69.50;35.18;;;;;;;1.60;61.66;96961.66;258868;1116;116013;-70
2021/01/29 22:45:53;;;;;;;66.70;33.73;;;;;;;1.58;61.63;96971.38;258310;1113;114954;-68
2021/01/29 22:50:59;;;;;;;65.43;33.18;;;;;;;1.55;61.62;96974.19;257813;1115;115097;-70
2021/01/29 22:56:02;;;;;;;66.23;32.35;;;;;;;1.51;62.17;96972.69;258919;1116;115893;-71
2021/01/29 23:01:05;;;;;;;67.25;33.28;;;;;;;1.49;62.33;96977.16;258828;1116;116265;-69
2021/01/29 23:06:12;;;;;;;65.40;32.75;;;;;;;1.49;62.16;96990.27;258861;1116;115130;-69
2021/01/29 23:11:16;;;;;;;64.70;31.65;;;;;;;1.50;62.28;96991.98;258841;1115;114817;-69
2021/01/29 23:16:21;;;;;;;62.30;31.38;;;;;;;1.49;62.66;96995.51;258807;1115;114938;-69
2021/01/29 23:21:33;;;;;;;61.58;32.10;;;;;;;1.48;62.46;96990.37;258721;1115;114742;-70
2021/01/29 23:26:37;;;;;;;58.93;31.40;;;;;;;1.45;62.30;96994.00;258768;1116;114828;-69
2021/01/29 23:31:40;;;;;;;54.40;29.38;;;;;;;1.41;62.26;96992.50;258787;1116;114770;-70
2021/01/29 23:36:43;;;;;;;50.50;28.03;;;;;;;1.36;61.73;96999.80;258528;1115;115217;-71
2021/01/29 23:41:51;;;;;;;55.17;28.93;;;;;;;1.32;62.00;96998.27;258607;1114;115066;-70
2021/01/29 23:47:05;;;;;;;53.38;28.35;;;;;;;1.28;62.44;97002.84;258062;1116;114724;-71
2021/01/29 23:52:25;;;;;;;52.47;27.60;;;;;;;1.26;62.26;97001.23;258694;1105;116280;-70
2021/01/29 23:57:35;;;;;;;51.03;26.10;;;;;;;1.24;62.22;97006.58;257968;1115;114848;-69
